Time,TemperatureF,DewpointF,PressureIn,WindDirection,WindDirectionDegrees,WindSpeedMPH,WindSpeedGustMPH,Humidity,HourlyPrecipIn,Conditions,Clouds,dailyrainin,SoftwareType,DateUTC
2013-06-18 00:02:00,64.0,-99.9,-100.00,West,270,3.0,8.0,-999,-99.99,,,-99.99,,2013-06-18 07:02:00,
2013-06-18 00:12:00,64.0,-99.9,-100.00,West,270,3.0,8.0,-999,-99.99,,,-99.99,,2013-06-18 07:12:00,
2013-06-18 01:02:00,64.0,-99.9,-100.00,NNW,336,1.0,3.0,-999,-99.99,,,-99.99,,2013-06-18 08:02:00,
2013-06-18 01:11:00,64.0,-99.9,-100.00,NNW,336,1.0,3.0,-999,-99.99,,,-99.99,,2013-06-18 08:11:00,
2013-06-18 02:02:00,63.0,-99.9,-100.00,WNW,285,8.0,14.0,-999,-99.99,,,-99.99,,2013-06-18 09:02:00,
2013-06-18 02:12:00,63.0,-99.9,-100.00,WNW,285,8.0,14.0,-999,-99.99,,,-99.99,,2013-06-18 09:12:00,
2013-06-18 03:02:00,61.0,-99.9,-100.00,West,279,7.0,13.0,-999,-99.99,,,-99.99,,2013-06-18 10:02:00,
2013-06-18 03:12:00,61.0,-99.9,-100.00,West,279,7.0,13.0,-999,-99.99,,,-99.99,,2013-06-18 10:12:00,
2013-06-18 04:02:00,59.0,-99.9,-100.00,West,267,7.0,14.0,-999,-99.99,,,-99.99,,2013-06-18 11:02:00,
2013-06-18 04:11:00,59.0,-99.9,-100.00,West,267,7.0,14.0,-999,-99.99,,,-99.99,,2013-06-18 11:11:00,
2013-06-18 05:02:00,59.0,-99.9,-100.00,SW,236,1.0,3.0,-999,-99.99,,,-99.99,,2013-06-18 12:02:00,
2013-06-18 05:12:00,59.0,-99.9,-100.00,SW,236,1.0,3.0,-999,-99.99,,,-99.99,,2013-06-18 12:12:00,
2013-06-18 06:02:00,59.0,-99.9,-100.00,SE,143,2.0,5.0,-999,-99.99,,,-99.99,,2013-06-18 13:02:00,
2013-06-18 06:12:00,59.0,-99.9,-100.00,SE,143,2.0,5.0,-999,-99.99,,,-99.99,,2013-06-18 13:12:00,
2013-06-18 07:02:00,59.0,-99.9,-100.00,SE,140,6.0,10.0,-999,-99.99,,,-99.99,,2013-06-18 14:02:00,
2013-06-18 07:12:00,59.0,-99.9,-100.00,SE,140,6.0,10.0,-999,-99.99,,,-99.99,,2013-06-18 14:12:00,
2013-06-18 08:02:00,59.0,-99.9,-100.00,SSE,153,3.0,6.0,-999,-99.99,,,-99.99,,2013-06-18 15:02:00,
2013-06-18 08:11:00,59.0,-99.9,-100.00,SSE,153,3.0,6.0,-999,-99.99,,,-99.99,,2013-06-18 15:11:00,
2013-06-18 09:02:00,61.0,-99.9,-100.00,WNW,296,1.0,2.0,-999,-99.99,,,-99.99,,2013-06-18 16:02:00,
2013-06-18 09:12:00,61.0,-99.9,-100.00,WNW,296,1.0,2.0,-999,-99.99,,,-99.99,,2013-06-18 16:12:00,
2013-06-18 10:02:00,60.0,-99.9,-100.00,WNW,300,3.0,7.0,-999,-99.99,,,-99.99,,2013-06-18 17:02:00,
2013-06-18 10:12:00,60.0,-99.9,-100.00,WNW,300,3.0,7.0,-999,-99.99,,,-99.99,,2013-06-18 17:12:00,
2013-06-18 11:02:00,58.0,-99.9,-100.00,WNW,288,3.0,8.0,-999,-99.99,,,-99.99,,2013-06-18 18:02:00,
2013-06-18 11:12:00,58.0,-99.9,-100.00,WNW,288,3.0,8.0,-999,-99.99,,,-99.99,,2013-06-18 18:12:00,
2013-06-18 12:02:00,57.0,-99.9,-100.00,WSW,237,2.0,5.0,-999,-99.99,,,-99.99,,2013-06-18 19:02:00,
2013-06-18 12:12:00,57.0,-99.9,-100.00,WSW,237,2.0,5.0,-999,-99.99,,,-99.99,,2013-06-18 19:12:00,
2013-06-18 13:02:00,57.0,-99.9,-100.00,South,188,1.0,3.0,-999,-99.99,,,-99.99,,2013-06-18 20:02:00,
2013-06-18 13:12:00,57.0,-99.9,-100.00,South,188,1.0,3.0,-999,-99.99,,,-99.99,,2013-06-18 20:12:00,
2013-06-18 14:02:00,58.0,-99.9,-100.00,ESE,107,3.0,6.0,-999,-99.99,,,-99.99,,2013-06-18 21:02:00,
2013-06-18 14:12:00,58.0,-99.9,-100.00,ESE,107,3.0,6.0,-999,-99.99,,,-99.99,,2013-06-18 21:12:00,
2013-06-18 15:02:00,59.0,-99.9,-100.00,East,101,5.0,10.0,-999,-99.99,,,-99.99,,2013-06-18 22:02:00,
2013-06-18 15:12:00,59.0,-99.9,-100.00,East,101,5.0,10.0,-999,-99.99,,,-99.99,,2013-06-18 22:12:00,
2013-06-18 16:02:00,59.0,-99.9,-100.00,East,99,5.0,9.0,-999,-99.99,,,-99.99,,2013-06-18 23:02:00,
2013-06-18 16:12:00,59.0,-99.9,-100.00,East,99,5.0,9.0,-999,-99.99,,,-99.99,,2013-06-18 23:12:00,
2013-06-18 17:12:00,60.0,-99.9,-100.00,ESE,117,7.0,12.0,-999,-99.99,,,-99.99,,2013-06-19 00:12:00,
2013-06-18 18:02:00,60.0,-99.9,-100.00,ESE,121,6.0,9.0,-999,-99.99,,,-99.99,,2013-06-19 01:02:00,
2013-06-18 18:12:00,60.0,-99.9,-100.00,ESE,121,6.0,9.0,-999,-99.99,,,-99.99,,2013-06-19 01:12:00,
2013-06-18 19:02:00,61.0,-99.9,-100.00,East,88,3.0,6.0,-999,-99.99,,,-99.99,,2013-06-19 02:02:00,
2013-06-18 19:11:00,61.0,-99.9,-100.00,East,88,3.0,6.0,-999,-99.99,,,-99.99,,2013-06-19 02:11:00,
2013-06-18 20:01:00,61.0,-99.9,-100.00,East,89,1.0,2.0,-999,-99.99,,,-99.99,,2013-06-19 03:01:00,
2013-06-18 20:12:00,61.0,-99.9,-100.00,East,89,1.0,2.0,-999,-99.99,,,-99.99,,2013-06-19 03:12:00,
2013-06-18 21:02:00,60.0,-99.9,-100.00,North,359,5.0,10.0,-999,-99.99,,,-99.99,,2013-06-19 04:02:00,
2013-06-18 21:12:00,60.0,-99.9,-100.00,North,359,5.0,10.0,-999,-99.99,,,-99.99,,2013-06-19 04:12:00,
2013-06-18 22:01:00,59.0,-99.9,-100.00,NNW,336,2.0,5.0,-999,-99.99,,,-99.99,,2013-06-19 05:01:00,
2013-06-18 22:11:00,59.0,-99.9,-100.00,NNW,336,2.0,5.0,-999,-99.99,,,-99.99,,2013-06-19 05:11:00,
2013-06-18 23:02:00,59.0,-99.9,-100.00,SE,145,1.0,1.0,-999,-99.99,,,-99.99,,2013-06-19 06:02:00,
2013-06-18 23:12:00,59.0,-99.9,-100.00,SE,145,1.0,1.0,-999,-99.99,,,-99.99,,2013-06-19 06:12:00,